Flight Track Log - Related Links

Times and Time Zones

All times are in EDT time to prevent confusion due to time zone crossing. See the QTR38 flight status page for this flight to view local times or setup timezone preferences in your user account.

Time Position Orientation Groundspeed Altitude Reporting Facility
EDT Latitude Longitude Course Direction KTS MPH feet Rate Location/Type
Mon 04:23:17 PM 45.6630 8.7090 334° Northwest 178 205 2,300  Level FlightAware ADS-B
Mon 04:23:42 PM 45.6800 8.6900 322° Northwest 180 207 3,100 1,855 Climbing FlightAware ADS-B
Mon 04:24:12 PM 45.7000 8.6670 321° Northwest 188 216 4,000 1,867 Climbing FlightAware ADS-B
Mon 04:24:27 PM 45.7110 8.6570 328° Northwest 188 216 4,500 1,920 Climbing FlightAware ADS-B
Mon 04:24:37 PM 45.7180 8.6540 343° North 188 216 4,800 1,950 Climbing FlightAware ADS-B
Mon 04:25:07 PM 45.7410 8.6710 27° Northeast 190 219 5,800 1,733 Climbing FlightAware ADS-B
Mon 04:25:22 PM 45.7450 8.6880 71° East 198 228 6,100 1,067 Climbing FlightAware ADS-B
Mon 04:25:52 PM 45.7340 8.7310 110° East 232 267 6,600 1,100 Climbing FlightAware ADS-B
Mon 04:26:22 PM 45.7190 8.7780 115° Southeast 274 315 7,200 1,855 Climbing FlightAware ADS-B
Mon 04:26:47 PM 45.7070 8.8190 113° Southeast 284 327 8,300 2,700 Climbing FlightAware ADS-B
Mon 04:27:02 PM 45.6990 8.8470 112° Southeast 287 330 9,000 2,291 Climbing FlightAware ADS-B
Mon 04:27:42 PM 45.6770 8.9170 114° Southeast 311 358 10,400 1,553 Climbing FlightAware ADS-B
Mon 04:28:27 PM 45.6500 9.0090 113° Southeast 357 411 11,200 1,875 Climbing FlightAware ADS-B
Mon 04:29:02 PM 45.6340 9.0910 106° East 358 412 12,900 2,585 Climbing FlightAware ADS-B
Mon 04:29:32 PM 45.6210 9.1640 104° East 363 418 14,000 1,650 Climbing FlightAware ADS-B
Mon 04:30:22 PM 45.6000 9.2790 105° East 393 452 15,100 1,267 Climbing FlightAware ADS-B
Mon 04:31:02 PM 45.5820 9.3830 104° East 418 481 15,900 1,333 Climbing FlightAware ADS-B
Mon 04:31:52 PM 45.5570 9.5190 105° East 436 502 17,100 1,400 Climbing FlightAware ADS-B
Mon 04:32:32 PM 45.5390 9.6320 103° East 448 516 18,000 2,175 Climbing FlightAware ADS-B
Mon 04:33:12 PM 45.5200 9.7460 103° East 433 498 20,000 2,824 Climbing FlightAware ADS-B
Mon 04:33:57 PM 45.5000 9.8670 103° East 418 481 22,000 2,047 Climbing FlightAware ADS-B
Mon 04:34:37 PM 45.4820 9.9760 103° East 426 490 22,900 1,341 Climbing FlightAware ADS-B
Mon 04:35:22 PM 45.4610 10.0990 104° East 436 502 23,900 1,482 Climbing FlightAware ADS-B
Mon 04:36:02 PM 45.4430 10.2180 102° East 436 502 25,000 1,425 Climbing FlightAware ADS-B
Mon 04:36:42 PM 45.4270 10.3280 102° East 442 509 25,800 1,059 Climbing FlightAware ADS-B
Mon 04:37:27 PM 45.4080 10.4570 102° East 452 520 26,500 1,129 Climbing FlightAware ADS-B
Mon 04:38:07 PM 45.3900 10.5760 102° East 455 524 27,400 1,200 Climbing FlightAware ADS-B
Mon 04:38:52 PM 45.3700 10.7100 102° East 462 532 28,200 1,059 Climbing FlightAware ADS-B
Mon 04:39:32 PM 45.3530 10.8250 102° East 465 535 28,900 1,040 Climbing FlightAware ADS-B
Mon 04:40:07 PM 45.3370 10.9300 102° East 469 540 29,500 1,059 Climbing FlightAware ADS-B
Mon 04:40:57 PM 45.3130 11.0840 102° East 470 541 30,400 1,200 Climbing FlightAware ADS-B
Mon 04:41:37 PM 45.2920 11.2020 104° East 469 540 31,300 1,440 Climbing FlightAware ADS-B
Mon 04:42:12 PM 45.2580 11.3020 116° Southeast 462 532 32,200 1,129 Climbing FlightAware ADS-B
Mon 04:43:02 PM 45.2060 11.4330 119° Southeast 463 533 32,900 933 Climbing FlightAware ADS-B
Mon 04:43:42 PM 45.1650 11.5370 119° Southeast 462 532 33,600 988 Climbing FlightAware ADS-B
Mon 04:44:27 PM 45.1180 11.6550 119° Southeast 459 528 34,300 776 Climbing FlightAware ADS-B
Mon 04:45:07 PM 45.0760 11.7600 120° Southeast 463 533 34,700 525 Climbing FlightAware ADS-B
Mon 04:45:47 PM 45.0360 11.8620 119° Southeast 463 533 35,000 212 Climbing FlightAware ADS-B
Mon 04:46:32 PM 44.9880 11.9820 119° Southeast 458 527 35,000  Level FlightAware ADS-B
Mon 04:47:12 PM 44.9450 12.0870 120° Southeast 462 532 35,000  Level FlightAware ADS-B
Mon 04:47:57 PM 44.8970 12.2060 120° Southeast 461 531 35,000  Level FlightAware ADS-B
Mon 04:48:37 PM 44.8560 12.3070 120° Southeast 460 529 35,000  Level FlightAware ADS-B
Mon 04:49:22 PM 44.8110 12.4180 120° Southeast 459 528 35,000  Level FlightAware ADS-B
Mon 04:50:02 PM 44.7680 12.5210 120° Southeast 459 528 35,000  Level FlightAware ADS-B
Mon 04:50:42 PM 44.7270 12.6230 119° Southeast 458 527 35,000  Level FlightAware ADS-B
Mon 04:51:27 PM 44.6780 12.7400 120° Southeast 458 527 35,000  Level FlightAware ADS-B
Mon 04:52:07 PM 44.6350 12.8440 120° Southeast 456 525 35,000  Level FlightAware ADS-B
Mon 04:52:52 PM 44.5880 12.9580 120° Southeast 458 527 35,000  Level FlightAware ADS-B
Mon 04:53:32 PM 44.5440 13.0630 120° Southeast 458 527 35,000  Level FlightAware ADS-B
Mon 04:54:12 PM 44.5010 13.1660 120° Southeast 460 529 35,000  Level FlightAware ADS-B
Mon 04:54:57 PM 44.4500 13.2850 121° Southeast 463 533 35,000  Level FlightAware ADS-B
Mon 04:55:37 PM 44.4070 13.3870 121° Southeast 470 541 35,000  Level FlightAware ADS-B
Mon 04:56:17 PM 44.3620 13.4940 120° Southeast 470 541 35,000  Level FlightAware ADS-B
Mon 04:57:02 PM 44.3120 13.6110 121° Southeast 470 541 35,000  Level FlightAware ADS-B
Mon 04:57:42 PM 44.2680 13.7140 121° Southeast 469 540 35,000  Level FlightAware ADS-B
Mon 04:58:27 PM 44.2180 13.8310 121° Southeast 469 540 35,000  Level FlightAware ADS-B
Mon 04:59:07 PM 44.1740 13.9330 121° Southeast 468 539 35,000  Level FlightAware ADS-B
Mon 04:59:47 PM 44.1320 14.0320 121° Southeast 468 539 35,000  Level FlightAware ADS-B
Mon 05:00:27 PM 44.0820 14.1460 121° Southeast 469 540 35,000  Level FlightAware ADS-B
Mon 05:01:12 PM 44.0320 14.2610 121° Southeast 468 539 35,000  Level FlightAware ADS-B
Mon 05:01:52 PM 43.9850 14.3680 121° Southeast 469 540 35,000  Level FlightAware ADS-B
Mon 05:02:37 PM 43.9340 14.4840 121° Southeast 468 539 35,000  Level FlightAware ADS-B
Mon 05:03:17 PM 43.8930 14.5780 121° Southeast 468 539 35,000  Level FlightAware ADS-B
Mon 05:04:02 PM 43.8460 14.6840 122° Southeast 467 537 35,000  Level FlightAware ADS-B
Mon 05:04:42 PM 43.7960 14.7970 121° Southeast 468 539 35,000  Level FlightAware ADS-B
Mon 05:05:22 PM 43.7490 14.9030 122° Southeast 468 539 35,000  Level FlightAware ADS-B
Mon 05:06:07 PM 43.6980 15.0160 122° Southeast 468 539 35,000  Level FlightAware ADS-B
Mon 05:06:42 PM 43.6560 15.1110 121° Southeast 470 541 35,000  Level FlightAware ADS-B
Mon 05:07:32 PM 43.5990 15.2370 122° Southeast 466 536 35,000  Level FlightAware ADS-B
Mon 05:08:12 PM 43.5540 15.3360 122° Southeast 465 535 35,000  Level FlightAware ADS-B
Mon 05:08:52 PM 43.5070 15.4400 122° Southeast 466 536 35,000  Level FlightAware ADS-B
Mon 05:09:37 PM 43.4560 15.5530 122° Southeast 465 535 35,000  Level FlightAware ADS-B
Mon 05:10:17 PM 43.4080 15.6560 123° Southeast 464 534 35,000  Level FlightAware ADS-B
Mon 05:11:02 PM 43.3580 15.7670 122° Southeast 464 534 35,000  Level FlightAware ADS-B
Mon 05:11:42 PM 43.3100 15.8690 123° Southeast 464 534 35,000  Level FlightAware ADS-B
Mon 05:12:22 PM 43.2650 15.9690 122° Southeast 466 536 35,000  Level FlightAware ADS-B
Mon 05:13:07 PM 43.2130 16.0800 123° Southeast 466 536 35,000  Level FlightAware ADS-B
Mon 05:13:47 PM 43.1650 16.1820 123° Southeast 468 539 35,000  Level FlightAware ADS-B
Mon 05:14:32 PM 43.1120 16.2980 122° Southeast 474 545 35,000  Level FlightAware ADS-B
Mon 05:15:17 PM 43.0580 16.4110 123° Southeast 475 547 35,000  Level FlightAware ADS-B
Mon 05:15:57 PM 43.0110 16.5120 122° Southeast 477 549 35,000  Level FlightAware ADS-B
Mon 05:16:37 PM 42.9630 16.6120 123° Southeast 477 549 35,000  Level FlightAware ADS-B
Mon 05:17:17 PM 42.9100 16.7060 128° Southeast 478 550 35,000  Level FlightAware ADS-B
Mon 05:18:02 PM 42.8480 16.8170 127° Southeast 478 550 35,000  Level FlightAware ADS-B
Mon 05:18:42 PM 42.7940 16.9130 127° Southeast 478 550 35,000  Level FlightAware ADS-B
Mon 05:19:12 PM 42.7540 16.9840 127° Southeast 478 550 35,000  Level FlightAware ADS-B
Mon 05:19:57 PM 42.6930 17.0910 128° Southeast 479 551 35,000  Level FlightAware ADS-B
Mon 05:20:37 PM 42.6400 17.1850 127° Southeast 478 550 35,000  Level FlightAware ADS-B
Mon 05:21:17 PM 42.5850 17.2820 128° Southeast 476 548 35,000  Level FlightAware ADS-B
Mon 05:21:57 PM 42.5320 17.3730 128° Southeast 476 548 35,000  Level FlightAware ADS-B
Mon 05:22:42 PM 42.4700 17.4800 128° Southeast 478 550 35,000  Level FlightAware ADS-B
Mon 05:23:27 PM 42.4090 17.5870 128° Southeast 476 548 35,000  Level FlightAware ADS-B
Mon 05:24:07 PM 42.3540 17.6820 128° Southeast 476 548 35,000  Level FlightAware ADS-B
Mon 05:24:52 PM 42.2920 17.7890 128° Southeast 476 548 35,000  Level FlightAware ADS-B
Mon 05:25:32 PM 42.2360 17.8850 128° Southeast 481 554 35,000  Level FlightAware ADS-B
Mon 05:26:12 PM 42.1810 17.9790 128° Southeast 480 552 35,000  Level FlightAware ADS-B
Mon 05:26:57 PM 42.1210 18.0820 128° Southeast 481 554 35,000  Level FlightAware ADS-B
Mon 05:27:37 PM 42.0650 18.1770 128° Southeast 480 552 35,000  Level FlightAware ADS-B
Mon 05:28:22 PM 42.0010 18.2850 129° Southeast 481 554 35,000  Level FlightAware ADS-B
Mon 05:29:02 PM 41.9470 18.3770 128° Southeast 481 554 35,000  Level FlightAware ADS-B
Mon 05:29:42 PM 41.8910 18.4710 129° Southeast 482 555 35,000  Level FlightAware ADS-B
Mon 05:30:27 PM 41.8290 18.5730 129° Southeast 486 559 35,000  Level FlightAware ADS-B
Mon 05:31:07 PM 41.7720 18.6690 129° Southeast 488 562 35,000  Level FlightAware ADS-B
Mon 05:31:47 PM 41.7150 18.7640 129° Southeast 490 564 35,000  Level FlightAware ADS-B
Mon 05:32:32 PM 41.6520 18.8680 129° Southeast 492 566 35,000  Level FlightAware ADS-B
Mon 05:33:12 PM 41.5940 18.9650 129° Southeast 495 570 35,000  Level FlightAware ADS-B
Mon 05:33:57 PM 41.5300 19.0710 129° Southeast 494 568 35,000  Level FlightAware ADS-B
Mon 05:34:32 PM 41.4810 19.1510 129° Southeast 495 570 35,000  Level FlightAware ADS-B
Mon 05:35:17 PM 41.4140 19.2620 129° Southeast 495 570 35,000  Level FlightAware ADS-B
Mon 05:36:02 PM 41.3480 19.3700 129° Southeast 496 571 35,000  Level FlightAware ADS-B
Mon 05:36:42 PM 41.2910 19.4620 129° Southeast 495 570 35,000  Level FlightAware ADS-B
Mon 05:37:22 PM 41.2320 19.5580 129° Southeast 496 571 35,000  Level FlightAware ADS-B
Mon 05:38:07 PM 41.1670 19.6620 130° Southeast 496 571 35,000  Level FlightAware ADS-B
Mon 05:38:47 PM 41.1080 19.7570 129° Southeast 498 573 35,000  Level FlightAware ADS-B
Mon 05:39:32 PM 41.0410 19.8650 129° Southeast 499 574 35,000  Level FlightAware ADS-B
Mon 05:40:12 PM 40.9810 19.9610 130° Southeast 499 574 35,000  Level FlightAware ADS-B
Mon 05:40:52 PM 40.9240 20.0530 129° Southeast 499 574 35,000  Level FlightAware ADS-B
Mon 05:41:37 PM 40.8590 20.1560 130° Southeast 498 573 35,000  Level FlightAware ADS-B
Mon 05:42:17 PM 40.8000 20.2500 130° Southeast 497 572 35,000  Level FlightAware ADS-B
Mon 05:43:02 PM 40.7320 20.3580 130° Southeast 497 572 35,000  Level FlightAware ADS-B
Mon 05:43:42 PM 40.6780 20.4430 130° Southeast 491 565 35,000  Level FlightAware ADS-B
Mon 05:44:22 PM 40.6220 20.5310 130° Southeast 491 565 35,000  Level FlightAware ADS-B
Mon 05:45:07 PM 40.5540 20.6370 130° Southeast 497 572 35,000  Level FlightAware ADS-B
Mon 05:45:47 PM 40.4930 20.7330 130° Southeast 499 574 35,000  Level FlightAware ADS-B
Mon 05:46:32 PM 40.4260 20.8380 130° Southeast 499 574 35,000  Level FlightAware ADS-B
Mon 05:47:12 PM 40.3670 20.9270 131° Southeast 496 571 35,000  Level FlightAware ADS-B
Mon 05:47:52 PM 40.2990 21.0140 136° Southeast 507 583 35,000 71 Level FlightAware ADS-B
Mon 05:48:37 PM 40.2180 21.1030 140° Southeast 510 587 35,100  Climbing FlightAware ADS-B
Mon 05:49:17 PM 40.1470 21.1830 139° Southeast 510 587 35,000 -75 Descending FlightAware ADS-B
Mon 05:49:57 PM 40.0730 21.2640 140° Southeast 510 587 35,000  Level FlightAware ADS-B
Mon 05:50:42 PM 39.9930 21.3530 140° Southeast 510 587 35,000  Level FlightAware ADS-B
Mon 05:51:22 PM 39.9210 21.4320 140° Southeast 510 587 35,000  Level FlightAware ADS-B
Mon 05:52:07 PM 39.8420 21.5190 140° Southeast 505 581 35,000  Level FlightAware ADS-B
Mon 05:52:47 PM 39.7660 21.6020 140° Southeast 506 582 35,000  Level FlightAware ADS-B
Mon 05:53:32 PM 39.6920 21.6830 140° Southeast 508 585 35,000  Level FlightAware ADS-B
Mon 05:54:12 PM 39.6110 21.7700 140° Southeast 509 586 35,000  Level FlightAware ADS-B
Mon 05:54:57 PM 39.5290 21.8590 140° Southeast 511 588 35,000  Level FlightAware ADS-B
Mon 05:55:37 PM 39.4550 21.9400 140° Southeast 511 588 35,000  Level FlightAware ADS-B
Mon 05:56:22 PM 39.3730 22.0280 140° Southeast 519 597 35,000  Level FlightAware ADS-B
Mon 05:57:02 PM 39.2980 22.1080 140° Southeast 521 600 35,000  Level FlightAware ADS-B
Mon 05:57:42 PM 39.2240 22.1870 140° Southeast 520 598 35,000  Level FlightAware ADS-B
Mon 05:58:27 PM 39.1410 22.2770 140° Southeast 519 597 35,000  Level FlightAware ADS-B
Mon 05:59:07 PM 39.0650 22.3570 141° Southeast 522 601 35,000  Level FlightAware ADS-B
Mon 05:59:52 PM 38.9830 22.4450 140° Southeast 521 600 35,000  Level FlightAware ADS-B
Mon 06:00:32 PM 38.9070 22.5250 141° Southeast 525 604 35,000 75 Level FlightAware ADS-B
Mon 06:01:12 PM 38.8300 22.6060 141° Southeast 527 606 35,100  Climbing FlightAware ADS-B
Mon 06:01:52 PM 38.7590 22.6810 141° Southeast 529 609 35,000 -71 Descending FlightAware ADS-B
Mon 06:02:37 PM 38.6630 22.7810 141° Southeast 535 616 35,000  Level FlightAware ADS-B
Mon 06:03:17 PM 38.5880 22.8600 141° Southeast 535 616 35,000  Level FlightAware ADS-B
Mon 06:04:02 PM 38.4990 22.9530 141° Southeast 535 616 35,000  Level FlightAware ADS-B
Mon 06:04:42 PM 38.4220 23.0330 141° Southeast 536 617 35,000  Level FlightAware ADS-B
Mon 06:05:22 PM 38.3450 23.1120 141° Southeast 536 617 35,000  Level FlightAware ADS-B
Mon 06:06:07 PM 38.2600 23.2000 141° Southeast 537 618 35,000  Level FlightAware ADS-B
Mon 06:06:47 PM 38.1820 23.2800 141° Southeast 538 619 35,000  Level FlightAware ADS-B
Mon 06:07:32 PM 38.0940 23.3710 141° Southeast 538 619 35,000  Level FlightAware ADS-B
Mon 06:08:12 PM 38.0170 23.4500 141° Southeast 539 620 35,000  Level FlightAware ADS-B
Mon 06:08:52 PM 37.9390 23.5300 141° Southeast 540 621 35,000  Level FlightAware ADS-B
Mon 06:09:37 PM 37.8520 23.6180 141° Southeast 539 620 35,000  Level FlightAware ADS-B
Mon 06:10:17 PM 37.7730 23.6980 141° Southeast 537 618 35,000  Level FlightAware ADS-B
Mon 06:11:02 PM 37.6860 23.7870 141° Southeast 539 620 35,000  Level FlightAware ADS-B
Mon 06:11:42 PM 37.6080 23.8650 142° Southeast 539 620 35,000  Level FlightAware ADS-B
Mon 06:12:22 PM 37.5300 23.9440 141° Southeast 540 621 35,000 71 Level FlightAware ADS-B
Mon 06:13:07 PM 37.4430 24.0310 142° Southeast 543 625 35,100  Climbing FlightAware ADS-B
Mon 06:13:47 PM 37.3630 24.1110 142° Southeast 543 625 35,000 -71 Descending FlightAware ADS-B
Mon 06:14:32 PM 37.2740 24.2000 141° Southeast 544 626 35,000  Level FlightAware ADS-B
Mon 06:15:12 PM 37.1950 24.2780 142° Southeast 544 626 35,000  Level FlightAware ADS-B
Mon 06:15:57 PM 37.1070 24.3660 141° Southeast 541 623 35,000  Level FlightAware ADS-B
Mon 06:16:37 PM 37.0290 24.4430 142° Southeast 542 624 35,000  Level FlightAware ADS-B
Mon 06:17:22 PM 36.9400 24.5310 142° Southeast 545 627 35,000  Level FlightAware ADS-B
Mon 06:18:02 PM 36.8590 24.6100 142° Southeast 547 629 35,000  Level FlightAware ADS-B
Mon 06:18:42 PM 36.7780 24.6900 142° Southeast 546 628 35,000  Level FlightAware ADS-B
Mon 06:19:27 PM 36.6900 24.7760 142° Southeast 546 628 35,000  Level FlightAware ADS-B
Mon 06:20:07 PM 36.6110 24.8530 142° Southeast 546 628 35,000  Level FlightAware ADS-B
Mon 06:20:52 PM 36.5190 24.9420 142° Southeast 545 627 35,000  Level FlightAware ADS-B
Mon 06:21:32 PM 36.4410 25.0180 142° Southeast 547 629 35,000  Level FlightAware ADS-B
Mon 06:22:12 PM 36.3610 25.0950 142° Southeast 547 629 35,000  Level FlightAware ADS-B
Mon 06:22:57 PM 36.2760 25.1770 142° Southeast 547 629 35,000  Level FlightAware ADS-B
Mon 06:23:37 PM 36.1930 25.2570 142° Southeast 547 629 35,000  Level FlightAware ADS-B
Mon 06:24:17 PM 36.1160 25.3310 142° Southeast 545 627 35,000  Level FlightAware ADS-B
Mon 06:25:02 PM 36.0250 25.4180 142° Southeast 548 631 35,000  Level FlightAware ADS-B
Mon 06:25:42 PM 35.9460 25.4940 142° Southeast 547 629 35,000  Level FlightAware ADS-B
Mon 06:26:27 PM 35.8540 25.5810 143° Southeast 546 628 35,000  Level FlightAware ADS-B
Mon 06:27:07 PM 35.7750 25.6560 142° Southeast 546 628 35,000  Level FlightAware ADS-B
Mon 06:27:52 PM 35.6850 25.7410 142° Southeast 549 632 35,000  Level FlightAware ADS-B
Mon 06:28:32 PM 35.6040 25.8170 143° Southeast 549 632 35,000  Level FlightAware ADS-B
Mon 06:29:12 PM 35.5230 25.8930 143° Southeast 551 634 35,000 71 Level FlightAware ADS-B
Mon 06:29:57 PM 35.4310 25.9800 142° Southeast 550 633 35,100 71 Climbing FlightAware ADS-B
Mon 06:30:37 PM 35.3510 26.0550 143° Southeast 548 631 35,100 -75 Level FlightAware ADS-B
Mon 06:31:17 PM 35.2690 26.1310 143° Southeast 545 627 35,000 -71 Descending FlightAware ADS-B
Mon 06:32:02 PM 35.1810 26.2130 143° Southeast 542 624 35,000  Level FlightAware ADS-B
Mon 06:32:42 PM 35.1020 26.2860 143° Southeast 543 625 35,000  Level FlightAware ADS-B
Mon 06:33:27 PM 35.0110 26.3710 143° Southeast 545 627 35,000  Level FlightAware ADS-B
Mon 06:34:07 PM 34.9300 26.4450 143° Southeast 542 624 35,000  Level FlightAware ADS-B
Mon 06:34:47 PM 34.8480 26.5210 143° Southeast 544 626 35,000  Level FlightAware ADS-B
Mon 06:35:32 PM 34.7580 26.6030 143° Southeast 544 626 35,000  Level FlightAware ADS-B
Mon 06:36:27 PM 34.6530 26.7010 142° Southeast 547 629 35,000  Level FlightAware ADS-B
Mon 06:36:57 PM 34.6020 26.7490 142° Southeast 547 629 35,000  Level FlightAware ADS-B
Mon 06:37:37 PM 34.5340 26.8130 142° Southeast 547 629 35,000  Level FlightAware ADS-B
Mon 06:38:27 PM 34.4500 26.8940 142° Southeast 547 629 35,000  Level FlightAware ADS-B
Mon 06:39:07 PM 34.3820 26.9580 142° Southeast 547 629 35,000  Level FlightAware ADS-B
Mon 06:39:47 PM 34.3140 27.0220 142° Southeast 547 629 35,000  Level FlightAware ADS-B
Mon 06:40:27 PM 34.2460 27.0860 142° Southeast 547 629 35,000  Level FlightAware ADS-B
Mon 06:41:17 PM 34.1610 27.1660 142° Southeast 547 629 35,000  Level FlightAware ADS-B
Mon 06:41:57 PM 34.0940 27.2300 142° Southeast 547 629 35,000  Level FlightAware ADS-B
Mon 06:42:37 PM 34.0260 27.2940 142° Southeast 547 629 35,000  Level FlightAware ADS-B
Mon 06:43:17 PM 33.9580 27.3580 142° Southeast 547 629 35,000  Level FlightAware ADS-B
Mon 06:43:57 PM 33.8900 27.4220 142° Southeast 547 629 35,000  Level FlightAware ADS-B
Mon 06:44:47 PM 33.8050 27.5020 142° Southeast 547 629 35,000  Level FlightAware ADS-B
Mon 06:45:27 PM 33.7380 27.5650 142° Southeast 547 629 35,000 -118 Level FlightAware ADS-B
Mon 06:48:00 PM 33.6539 27.9202 106° East  Level Estimated
Mon 06:49:00 PM 33.6207 28.0593 106° East  Level Estimated
Mon 06:50:00 PM 33.5873 28.1982 106° East  Level Estimated
Mon 06:51:00 PM 33.5537 28.3371 106° East  Level Estimated
Mon 06:52:00 PM 33.5200 28.4759 106° East  Level Estimated
Mon 06:53:00 PM 33.4861 28.6145 106° East  Level Estimated
Mon 06:54:00 PM 33.4521 28.7531 106° East  Level Estimated
Mon 06:55:00 PM 33.4179 28.8915 106° East  Level Estimated
Mon 06:56:00 PM 33.3836 29.0299 107° East  Level Estimated
Mon 06:57:00 PM 33.3491 29.1681 107° East  Level Estimated
Mon 06:58:00 PM 33.3144 29.3062 107° East  Level Estimated
Mon 06:59:00 PM 33.2797 29.4442 107° East  Level Estimated
Mon 07:00:00 PM 33.2447 29.5821 107° East  Level Estimated
Mon 07:01:00 PM 33.2096 29.7199 107° East  Level Estimated
Mon 07:02:00 PM 33.1744 29.8575 107° East  Level Estimated
Mon 07:03:00 PM 33.1390 29.9951 107° East  Level Estimated
Mon 07:04:00 PM 33.1034 30.1325 107° East  Level Estimated
Mon 07:05:00 PM 33.0677 30.2699 107° East  Level Estimated
Mon 07:06:00 PM 33.0319 30.4071 107° East  Level Estimated
Mon 07:07:00 PM 32.9959 30.5442 107° East  Level Estimated
Mon 07:08:00 PM 32.9597 30.6812 107° East  Level Estimated
Mon 07:09:00 PM 32.9234 30.8181 107° East  Level Estimated
Mon 07:10:00 PM 32.8870 30.9549 108° East  Level Estimated
Mon 07:11:00 PM 32.8504 31.0916 108° East  Level Estimated
Mon 07:12:00 PM 32.8136 31.2281 108° East  Level Estimated
Mon 07:13:00 PM 32.7767 31.3646 108° East  Level Estimated
Mon 07:14:00 PM 32.7397 31.5009 108° East  Level Estimated
Mon 07:15:00 PM 32.7025 31.6371 108° East  Level Estimated
Mon 07:16:00 PM 32.6651 31.7732 108° East  Level Estimated
Mon 07:17:00 PM 32.6277 31.9092 108° East  Level Estimated
Mon 07:18:00 PM 32.5900 32.0451 108° East  Level Estimated
Mon 07:19:00 PM 32.5522 32.1808 108° East  Level Estimated
Mon 07:20:00 PM 32.5143 32.3164 108° East  Level Estimated
Mon 07:21:00 PM 32.4763 32.4520 108° East  Level Estimated
Mon 07:22:00 PM 32.4380 32.5874 108° East  Level Estimated
Mon 07:23:00 PM 32.3997 32.7227 109° East  Level Estimated
Mon 07:24:00 PM 32.3612 32.8579 109° East  Level Estimated
Mon 07:25:00 PM 32.3225 32.9929 109° East  Level Estimated
Mon 07:26:00 PM 32.2837 33.1279 109° East  Level Estimated
Mon 07:27:00 PM 32.2448 33.2627 109° East  Level Estimated
Mon 07:28:00 PM 32.2057 33.3974 109° East  Level Estimated
Mon 07:29:00 PM 32.1665 33.5321 109° East  Level Estimated
Mon 07:30:00 PM 32.1272 33.6665 109° East  Level Estimated
Mon 07:31:00 PM 32.0877 33.8009 109° East  Level Estimated
Mon 07:32:00 PM 32.0480 33.9352 109° East  Level Estimated
Mon 07:33:00 PM 32.0082 34.0693 109° East  Level Estimated
Mon 07:34:00 PM 31.9683 34.2033 109° East  Level Estimated
Mon 07:35:00 PM 31.9282 34.3372 109° East  Level Estimated
Mon 07:36:00 PM 31.8880 34.4710 109° East  Level Estimated
Mon 07:37:00 PM 31.8477 34.6047 110° East  Level Estimated
Mon 07:38:00 PM 31.8072 34.7383 110° East  Level Estimated
Mon 07:39:00 PM 31.7665 34.8717 110° East  Level Estimated
Mon 07:40:00 PM 31.7258 35.0050 110° East  Level Estimated
Mon 07:41:00 PM 31.6849 35.1382 110° East  Level Estimated
Mon 07:42:00 PM 31.6438 35.2713 110° East  Level Estimated
Mon 07:43:00 PM 31.6026 35.4043 110° East  Level Estimated
Mon 07:44:00 PM 31.5613 35.5371 110° East  Level Estimated
Mon 07:45:00 PM 31.5199 35.6698 110° East  Level Estimated
Mon 07:46:00 PM 31.4783 35.8025 110° East  Level Estimated
Mon 07:47:00 PM 31.4365 35.9350 110° East  Level Estimated
Mon 07:48:00 PM 31.3947 36.0673 110° East  Level Estimated
Mon 07:49:00 PM 31.3527 36.1996 110° East  Level Estimated
Mon 07:50:00 PM 31.3105 36.3317 110° East  Level Estimated
Mon 07:51:00 PM 31.2683 36.4638 111° Southeast  Level Estimated
Mon 07:52:00 PM 31.2258 36.5957 111° Southeast  Level Estimated
Mon 07:53:00 PM 31.1833 36.7275 111° Southeast  Level Estimated
Mon 07:54:00 PM 31.1406 36.8591 111° Southeast  Level Estimated
Mon 07:55:00 PM 31.0978 36.9907 111° Southeast  Level Estimated
Mon 07:56:00 PM 31.0549 37.1221 111° Southeast  Level Estimated
Mon 07:57:00 PM 31.0118 37.2534 111° Southeast  Level Estimated
Mon 07:58:00 PM 30.9686 37.3846 111° Southeast  Level Estimated
Mon 07:59:00 PM 30.9252 37.5157 111° Southeast  Level Estimated
Mon 08:00:00 PM 30.8818 37.6466 111° Southeast  Level Estimated
Mon 08:01:00 PM 30.8382 37.7775 111° Southeast  Level Estimated
Mon 08:02:00 PM 30.7944 37.9082 111° Southeast  Level Estimated
Mon 08:03:00 PM 30.7506 38.0388 111° Southeast  Level Estimated
Mon 08:04:00 PM 30.7066 38.1693 111° Southeast  Level Estimated
Mon 08:05:00 PM 30.6624 38.2996 111° Southeast  Level Estimated
Mon 08:06:00 PM 30.6182 38.4299 112° Southeast  Level Estimated
Mon 08:07:00 PM 30.5738 38.5600 112° Southeast  Level Estimated
Mon 08:08:00 PM 30.5293 38.6900 112° Southeast  Level Estimated
Mon 08:09:00 PM 30.4846 38.8199 112° Southeast  Level Estimated
Mon 08:10:00 PM 30.4398 38.9496 112° Southeast  Level Estimated
Mon 08:11:00 PM 30.3949 39.0793 112° Southeast  Level Estimated
Mon 08:12:00 PM 30.3499 39.2088 112° Southeast  Level Estimated
Mon 08:13:00 PM 30.3047 39.3382 112° Southeast  Level Estimated
Mon 08:14:00 PM 30.2595 39.4675 112° Southeast  Level Estimated
Mon 08:15:00 PM 30.2140 39.5967 112° Southeast  Level Estimated
Mon 08:16:00 PM 30.1685 39.7257 112° Southeast  Level Estimated
Mon 08:17:00 PM 30.1228 39.8546 112° Southeast  Level Estimated
Mon 08:18:00 PM 30.0770 39.9835 112° Southeast  Level Estimated
Mon 08:19:00 PM 30.0311 40.1121 112° Southeast  Level Estimated
Mon 08:20:00 PM 29.9851 40.2407 112° Southeast  Level Estimated
Mon 08:21:00 PM 29.9389 40.3692 112° Southeast  Level Estimated
Mon 08:22:00 PM 29.8926 40.4975 113° Southeast  Level Estimated
Mon 08:23:00 PM 29.8462 40.6257 113° Southeast  Level Estimated
Mon 08:24:00 PM 29.7997 40.7538 113° Southeast  Level Estimated
Mon 08:25:00 PM 29.7530 40.8818 113° Southeast  Level Estimated
Mon 08:26:00 PM 29.7062 41.0096 113° Southeast  Level Estimated
Mon 08:27:00 PM 29.6593 41.1374 113° Southeast  Level Estimated
Mon 08:28:00 PM 29.6123 41.2650 113° Southeast  Level Estimated
Mon 08:29:00 PM 29.5651 41.3925 113° Southeast  Level Estimated
Mon 08:30:00 PM 29.5179 41.5199 113° Southeast  Level Estimated
Mon 08:31:00 PM 29.4704 41.6471 113° Southeast  Level Estimated
Mon 08:32:00 PM 29.4229 41.7743 113° Southeast  Level Estimated
Mon 08:33:00 PM 29.3753 41.9013 113° Southeast  Level Estimated
Mon 08:34:00 PM 29.3275 42.0282 113° Southeast  Level Estimated
Mon 08:35:00 PM 29.2796 42.1550 113° Southeast  Level Estimated
Mon 08:36:00 PM 29.2316 42.2816 113° Southeast  Level Estimated
Mon 08:37:00 PM 29.1835 42.4082 114° Southeast  Level Estimated
Mon 08:38:00 PM 29.1353 42.5346 114° Southeast  Level Estimated
Mon 08:39:00 PM 29.0870 42.6609 114° Southeast  Level Estimated
Mon 08:40:00 PM 29.0385 42.7871 114° Southeast  Level Estimated
Mon 08:41:00 PM 28.9899 42.9132 114° Southeast  Level Estimated
Mon 08:42:00 PM 28.9412 43.0391 114° Southeast  Level Estimated
Mon 08:43:00 PM 28.8924 43.1649 114° Southeast  Level Estimated
Mon 08:44:00 PM 28.8434 43.2906 114° Southeast  Level Estimated
Mon 08:45:00 PM 28.7944 43.4162 114° Southeast  Level Estimated
Mon 08:46:00 PM 28.7452 43.5417 114° Southeast  Level Estimated
Mon 08:47:00 PM 28.6959 43.6671 114° Southeast  Level Estimated
Mon 08:48:00 PM 28.6465 43.7923 114° Southeast  Level Estimated
Mon 08:49:00 PM 28.5970 43.9174 114° Southeast  Level Estimated
Mon 08:50:00 PM 28.5473 44.0425 114° Southeast  Level Estimated
Mon 08:51:00 PM 28.4976 44.1674 114° Southeast  Level Estimated
Mon 08:52:00 PM 28.4477 44.2921 114° Southeast  Level Estimated
Mon 08:53:00 PM 28.3978 44.4168 114° Southeast  Level Estimated
Mon 08:54:00 PM 28.3477 44.5413 115° Southeast  Level Estimated
Mon 08:55:00 PM 28.2975 44.6657 115° Southeast  Level Estimated
Mon 08:56:00 PM 28.2472 44.7900 115° Southeast  Level Estimated
Mon 08:57:00 PM 28.1967 44.9142 115° Southeast  Level Estimated
Mon 08:58:00 PM 28.1462 45.0383 115° Southeast  Level Estimated
Mon 08:59:00 PM 28.0955 45.1622 115° Southeast  Level Estimated
Mon 09:00:00 PM 28.0448 45.2860 115° Southeast  Level Estimated
Mon 09:01:00 PM 27.9939 45.4098 115° Southeast  Level Estimated
Mon 09:02:00 PM 27.9429 45.5334 115° Southeast  Level Estimated
Mon 09:03:00 PM 27.8918 45.6568 115° Southeast  Level Estimated
Mon 09:04:00 PM 27.8406 45.7802 115° Southeast  Level Estimated
Mon 09:05:00 PM 27.7893 45.9034 115° Southeast  Level Estimated
Mon 09:06:00 PM 27.7379 46.0266 115° Southeast  Level Estimated
Mon 09:07:00 PM 27.6864 46.1496 115° Southeast  Level Estimated
Mon 09:08:00 PM 27.6347 46.2725 115° Southeast  Level Estimated
Mon 09:09:00 PM 27.5830 46.3953 115° Southeast  Level Estimated
Mon 09:10:00 PM 27.5311 46.5179 115° Southeast  Level Estimated
Mon 09:11:00 PM 27.4792 46.6405 116° Southeast  Level Estimated
Mon 09:12:00 PM 27.4271 46.7629 116° Southeast  Level Estimated
Mon 09:13:00 PM 27.3749 46.8852 116° Southeast  Level Estimated
Mon 09:14:00 PM 27.3226 47.0074 116° Southeast  Level Estimated
Mon 09:15:00 PM 27.2702 47.1295 116° Southeast  Level Estimated
Mon 09:16:00 PM 27.2177 47.2515 116° Southeast  Level Estimated
Mon 09:17:00 PM 27.1651 47.3733 116° Southeast  Level Estimated
Mon 09:18:00 PM 27.1124 47.4951 116° Southeast  Level Estimated
Mon 09:19:00 PM 27.0596 47.6167 116° Southeast  Level Estimated
Mon 09:20:00 PM 27.0067 47.7382 116° Southeast  Level Estimated
Mon 09:21:00 PM 26.9537 47.8596 116° Southeast  Level Estimated
Mon 09:22:00 PM 26.9005 47.9809 116° Southeast  Level Estimated
Mon 09:23:00 PM 26.8473 48.1021 116° Southeast  Level Estimated
Mon 09:24:00 PM 26.7940 48.2231 116° Southeast  Level Estimated
Mon 09:25:00 PM 26.7405 48.3441 116° Southeast  Level Estimated
Mon 09:26:00 PM 26.6870 48.4649 116° Southeast  Level Estimated
Mon 09:27:00 PM 26.6334 48.5856 116° Southeast  Level Estimated
Mon 09:28:00 PM 26.5796 48.7062 116° Southeast  Level Estimated
Mon 09:29:00 PM 26.5258 48.8267 117° Southeast  Level Estimated
Mon 09:30:00 PM 26.4718 48.9471 117° Southeast  Level Estimated
Mon 09:31:00 PM 26.4178 49.0674 117° Southeast  Level Estimated
Mon 09:32:00 PM 26.3636 49.1875 117° Southeast  Level Estimated
Mon 09:32:42 PM 25.2650 50.8110 117° Southeast 397 457 15,200  Level FlightAware ADS-B
Mon 09:33:00 PM 26.3094 49.3075 117° Southeast  Level Estimated
Mon 09:33:27 PM 25.2660 50.9050 89° East 391 450 13,600  Level FlightAware ADS-B
Mon 09:34:07 PM 25.2670 50.9790 89° East 382 440 12,400 -1,725 Descending FlightAware ADS-B
Mon 09:34:47 PM 25.2680 51.0580 89° East 363 418 11,300 -1,200 Descending FlightAware ADS-B
Mon 09:35:32 PM 25.2690 51.1390 89° East 329 379 10,700 -918 Descending FlightAware ADS-B
Mon 09:36:12 PM 25.2700 51.2020 89° East 311 358 10,000 -1,200 Descending FlightAware ADS-B
Mon 09:36:32 PM 25.2700 51.2350 90° East 307 353 9,500 -1,600 Descending FlightAware ADS-B
Mon 09:36:57 PM 25.2670 51.2730 95° East 303 349 8,800 -1,500 Descending FlightAware ADS-B
Mon 09:37:12 PM 25.2580 51.2910 119° Southeast 294 338 8,500 -900 Descending FlightAware ADS-B
Mon 09:37:37 PM 25.2350 51.3210 130° Southeast 287 330 8,200 -764 Descending FlightAware ADS-B
Mon 09:38:07 PM 25.2080 51.3560 130° Southeast 276 318 7,800 -1,309 Descending FlightAware ADS-B
Mon 09:38:32 PM 25.1880 51.3820 130° Southeast 282 325 7,000 -1,855 Descending FlightAware ADS-B
Mon 09:39:02 PM 25.1620 51.4170 129° Southeast 283 326 6,100 -1,500 Descending FlightAware ADS-B
Mon 09:39:32 PM 25.1380 51.4490 130° Southeast 284 327 5,500 -1,418 Descending FlightAware ADS-B
Mon 09:39:57 PM 25.1180 51.4760 129° Southeast 281 323 4,800 -1,309 Descending FlightAware ADS-B
Mon 09:40:27 PM 25.0900 51.5110 131° Southeast 272 313 4,300 -873 Descending FlightAware ADS-B
Mon 09:40:52 PM 25.0710 51.5360 130° Southeast 253 291 4,000 -764 Descending FlightAware ADS-B
Mon 09:41:22 PM 25.0470 51.5650 132° Southeast 244 281 3,600 -700 Descending FlightAware ADS-B
Mon 09:41:52 PM 25.0330 51.5950 117° Southeast 228 262 3,300 -554 Descending FlightAware ADS-B
Mon 09:42:27 PM 25.0310 51.6360 93° East 207 238 3,000 -545 Descending FlightAware ADS-B
Mon 09:42:47 PM 25.0390 51.6550 65° Northeast 190 219 2,800 -240 Descending FlightAware ADS-B
Mon 09:43:42 PM 25.0800 51.6450 348° North 170 196 2,700 -141 Descending FlightAware ADS-B
Mon 09:44:12 PM 25.1000 51.6360 338° Northwest 161 185 2,600 -218 Descending FlightAware ADS-B
Mon 09:44:37 PM 25.1200 51.6270 338° Northwest 160 184 2,500 -457 Descending FlightAware ADS-B
Mon 09:45:57 PM 25.1710 51.6040 338° Northwest 145 167 1,800 -678 Descending FlightAware ADS-B
Mon 09:46:32 PM 25.1920 51.5960 341° North 125 144 1,200 -831 Descending FlightAware ADS-B
Mon 09:47:02 PM 25.2090 51.5880 337° Northwest 124 143 900 -655 Descending FlightAware ADS-B
Mon 09:47:27 PM 25.2220 51.5820 337° Northwest 120 138 600 -462 Descending FlightAware ADS-B
Mon 09:48:07 PM 25.2440 51.5720 338° Northwest 123 142 400 -300 Descending FlightAware ADS-B
Mon 09:50:00 PM 25.2611 51.5651 340° North  Level Estimated
Mon 09:51:00 PM 25.2611 51.5651 324° Northwest  Level Estimated
Mon 09:52:00 PM 25.2611 51.5651 324° Northwest  Level Estimated
Mon 09:53:00 PM 25.2611 51.5651 324° Northwest  Level Estimated
Mon 09:54:00 PM 25.2611 51.5651 324° Northwest  Level Estimated
Mon 09:55:00 PM 25.2611 51.5651 324° Northwest  Level Estimated
Mon 09:56:00 PM 25.2611 51.5651 324° Northwest  Level Estimated
Mon 09:57:00 PM 25.2611 51.5651 324° Northwest  Level Estimated
Mon 09:58:00 PM 25.2611 51.5651 324° Northwest  Level Estimated
Mon 09:59:00 PM 25.2611 51.5651 324° Northwest  Level Estimated
Mon 10:00:00 PM 25.2611 51.5651 324° Northwest  Level Estimated
Mon 10:01:00 PM 25.2611 51.5651 324° Northwest  Level Estimated
Mon 10:02:00 PM 25.2611 51.5651 324° Northwest  Level Estimated
Mon 10:03:00 PM 25.2611 51.5651 324° Northwest  Level Estimated
Mon 10:04:00 PM 25.2611 51.5651 324° Northwest  Level Estimated
Mon 10:05:00 PM 25.2611 51.5651 324° Northwest  Level Estimated
Mon 10:06:00 PM 25.2611 51.5651 324° Northwest  Level Estimated
Mon 10:07:00 PM 25.2611 51.5651 324° Northwest  Level Estimated
Mon 10:08:00 PM 25.2611 51.5651 324° Northwest  Level Estimated
Mon 10:09:00 PM 25.2611 51.5651 324° Northwest  Level Estimated

Login

Don't have an account? Register now (free) for customized features, flight alerts, and more!